Latest Weather Observations for Darwin Airport

IDD60901

Issued at 8:51 am CST Wednesday 18 January 2017 (issued every 10 minutes, with the page automatically refreshed every 10 minutes)

About weather observations | Map of Darwin area stations | Latest observations for Darwin area | Other Formats
Station Details ID: 014015 Name: DARWIN AIRPORT Lat: -12.42 Lon: 130.89 Height: 30.4 m
Data from the previous 72 hours. | See also: Recent months at Darwin Airport
Date/Time
CST
Temp
°C
App
Temp
°C
Dew
Point
°C
Rel
Hum
%
Delta-T
°C
Wind Press
QNH
hPa
Press
MSL
hPa
Rain since
9am
mm
Dir  Spd
km/h
Gust
km/h
Spd
kts
Gust
kts
18/08:30am 29.2 34.2 24.8 77 3.1 NW 7 9 4 5 1010.6 1010.4 0.0
18/08:00am 29.6 34.2 24.7 75 3.4 WNW 9 15 5 8 1010.7 1010.5 0.0
18/07:30am 28.1 33.6 25.3 85 2.0 W 6 9 3 5 1010.6 1010.4 0.0
18/07:00am 27.2 32.5 24.9 87 1.6 WNW 6 9 3 5 1010.2 1010.0 0.0
18/06:30am 28.1 32.4 24.2 79 2.7 NW 9 17 5 9 1009.8 1009.5 0.0
18/06:00am 28.1 32.5 25.1 84 2.1 W 11 17 6 9 1009.1 1008.8 0.0
18/05:30am 28.1 32.1 24.4 80 2.6 WNW 11 15 6 8 1008.5 1008.2 0.0
18/05:00am 28.2 31.9 24.5 80 2.6 NW 13 17 7 9 1008.2 1007.9 0.0
18/04:30am 27.5 32.1 24.8 85 1.9 NW 9 11 5 6 1008.2 1007.9 0.0
18/04:00am 28.0 31.9 24.3 80 2.6 NW 11 13 6 7 1008.2 1007.9 0.0
18/03:30am 28.0 31.8 24.1 79 2.7 NW 11 17 6 9 1008.2 1007.9 0.0
18/03:00am 28.0 31.4 24.0 79 2.8 WNW 13 20 7 11 1008.2 1007.9 0.0
18/02:30am 27.9 31.2 24.5 82 2.4 WNW 15 19 8 10 1008.3 1008.0 0.0
18/02:00am 28.1 31.7 25.0 83 2.2 WNW 15 19 8 10 1008.6 1008.3 0.0
18/01:30am 28.1 31.7 24.4 80 2.6 NW 13 20 7 11 1008.8 1008.5 0.0
18/01:00am 28.2 32.1 24.2 79 2.8 NNW 11 17 6 9 1009.3 1009.0 0.0
18/12:30am 28.4 31.7 23.9 76 3.1 NNW 13 19 7 10 1009.6 1009.3 0.0
18/12:00am 28.2 31.5 23.9 77 3.0 NNW 13 22 7 12 1009.7 1009.4 0.0
 
Date/Time
CST
Temp
°C
App
Temp
°C
Dew
Point
°C
Rel
Hum
%
Delta-T
°C
Wind Press
QNH
hPa
Press
MSL
hPa
Rain since
9am
mm
Dir  Spd
km/h
Gust
km/h
Spd
kts
Gust
kts
17/11:30pm 28.3 30.7 23.7 76 3.2 NNW 17 22 9 12 1010.0 1009.8 0.0
17/11:00pm 28.5 31.6 24.8 80 2.6 N 17 22 9 12 1010.1 1009.9 0.0
17/10:30pm 28.9 32.0 24.1 75 3.3 N 15 20 8 11 1010.1 1009.9 0.0
17/10:00pm 29.0 32.0 24.0 74 3.5 N 15 22 8 12 1010.1 1009.9 0.0
17/09:30pm 28.7 33.3 23.8 75 3.4 W 6 7 3 4 1009.8 1009.5 0.0
17/09:00pm 28.3 32.4 23.0 73 3.6 WNW 6 6 3 3 1009.8 1009.5 0.0
17/08:30pm 28.0 31.3 22.6 72 3.7 W 9 15 5 8 1009.6 1009.3 0.0
17/08:00pm 29.1 30.7 22.2 66 4.7 NW 17 22 9 12 1009.3 1009.0 0.0
17/07:30pm 28.9 30.8 21.4 64 5.0 N 13 17 7 9 1008.6 1008.3 0.0
17/07:00pm 30.4 33.0 23.3 66 4.9 WNW 15 19 8 10 1008.2 1007.9 0.0
17/06:30pm 30.7 33.2 23.2 64 5.2 NW 15 19 8 10 1007.9 1007.6 0.0
17/06:00pm 31.2 33.6 22.9 61 5.7 WNW 15 20 8 11 1007.2 1006.9 0.0
17/05:30pm 31.6 33.3 22.4 58 6.3 WNW 17 24 9 13 1006.8 1006.5 0.0
17/05:00pm 32.1 33.4 21.6 53 7.1 W 17 20 9 11 1006.5 1006.2 0.0
17/04:30pm 32.3 34.3 21.5 53 7.3 WNW 13 19 7 10 1006.4 1006.1 0.0
17/04:00pm 32.2 34.1 21.4 53 7.3 WNW 13 19 7 10 1006.5 1006.2 0.0
17/03:30pm 32.5 33.8 20.9 50 7.8 WNW 15 20 8 11 1006.7 1006.4 0.0
17/03:00pm 32.7 33.1 19.9 46 8.5 WNW 17 22 9 12 1007.1 1006.8 0.0
17/02:30pm 32.7 34.7 20.8 49 8.0 NW 11 22 6 12 1007.5 1007.2 0.0
17/02:00pm 32.2 34.9 23.4 59 6.1 NW 15 24 8 13 1007.8 1007.5 0.0
17/01:30pm 31.5 32.9 21.9 56 6.5 NW 17 26 9 14 1008.2 1007.9 0.0
17/01:00pm 32.0 34.5 22.4 57 6.6 NW 13 19 7 10 1008.1 1007.8 0.0
17/12:30pm 31.3 34.1 23.0 61 5.7 NW 13 20 7 11 1008.3 1008.0 0.0
17/12:00pm 31.0 33.6 22.7 61 5.7 WNW 13 22 7 12 1008.6 1008.3 0.0
17/11:30am 31.3 33.9 23.3 62 5.5 WNW 15 20 8 11 1009.0 1008.7 0.0
17/11:00am 31.0 34.1 23.5 64 5.2 WNW 13 24 7 13 1009.3 1009.0 0.0
17/10:30am 30.5 33.3 23.7 67 4.7 NW 15 20 8 11 1009.5 1009.2 0.0
17/10:00am 30.8 34.3 24.2 68 4.6 NNW 13 19 7 10 1009.6 1009.3 0.0
17/09:30am 30.0 33.1 23.5 68 4.5 NNW 13 17 7 9 1009.5 1009.2 0.0
17/09:00am 29.2 34.1 24.3 75 3.4 NNW 6 9 3 5 1009.2 1008.9 1.2
17/08:30am 28.5 34.1 24.8 80 2.6 NNE 4 6 2 3 1009.3 1009.0 1.2
17/08:00am 27.8 33.6 25.2 86 1.8 ENE 4 4 2 2 1009.3 1009.0 1.2
17/07:30am 26.1 31.6 24.7 92 1.0 NE 4 4 2 2 1008.9 1008.6 1.2
17/07:00am 25.0 29.9 24.3 96 0.5 NE 6 6 3 3 1008.4 1008.1 1.2
17/06:30am 25.0 30.1 24.1 95 0.6 SE 4 6 2 3 1008.0 1007.7 1.2
17/06:00am 25.4 30.2 24.2 93 0.8 S 6 6 3 3 1007.7 1007.4 1.2
17/05:30am 25.6 30.9 24.4 93 0.8 SE 4 4 2 2 1007.4 1007.1 1.2
17/05:00am 25.6 31.1 24.6 94 0.7 ESE 4 4 2 2 1007.1 1006.8 1.2
17/04:30am 25.8 32.0 24.6 93 0.8 CALM 0 0 0 0 1006.9 1006.6 1.2
17/04:00am 25.9 31.9 24.3 91 1.1 CALM 0 0 0 0 1006.8 1006.5 1.2
17/03:30am 25.7 31.6 24.1 91 1.1 CALM 0 0 0 0 1006.9 1006.6 1.2
17/03:00am 25.5 30.4 23.6 89 1.3 ENE 4 6 2 3 1006.9 1006.6 1.2
17/02:30am 25.5 30.3 23.5 89 1.4 NNE 4 6 2 3 1007.1 1006.8 1.2
17/02:00am 25.4 30.2 24.1 92 0.9 NE 6 9 3 5 1007.3 1007.0 1.2
17/01:30am 25.5 30.2 24.0 91 1.0 NNE 6 9 3 5 1007.7 1007.4 1.2
17/01:00am 25.6 31.4 23.9 90 1.2 CALM 0 7 0 4 1007.8 1007.5 1.2
17/12:30am 25.6 30.8 24.2 92 1.0 NE 4 7 2 4 1008.2 1007.9 1.2
17/12:00am 25.7 31.2 24.1 91 1.1 E 2 4 1 2 1008.3 1008.0 1.2
 
Date/Time
CST
Temp
°C
App
Temp
°C
Dew
Point
°C
Rel
Hum
%
Delta-T
°C
Wind Press
QNH
hPa
Press
MSL
hPa
Rain since
9am
mm
Dir  Spd
km/h
Gust
km/h
Spd
kts
Gust
kts
16/11:30pm 25.9 31.7 23.9 89 1.4 CALM 0 2 0 1 1008.5 1008.2 1.2
16/11:00pm 26.3 32.1 24.0 87 1.6 CALM 0 2 0 1 1008.5 1008.2 1.2
16/10:30pm 26.5 30.8 23.3 82 2.2 SSE 6 6 3 3 1008.3 1008.0 1.2
16/10:00pm 26.6 30.5 22.9 80 2.5 S 7 9 4 5 1008.0 1007.7 1.2
16/09:30pm 26.7 30.6 22.9 79 2.6 S 7 9 4 5 1008.0 1007.7 1.2
16/09:00pm 26.8 30.8 22.8 79 2.7 S 6 7 3 4 1007.8 1007.5 1.2
16/08:30pm 26.9 30.5 23.1 80 2.6 S 9 11 5 6 1007.5 1007.2 1.2
16/08:00pm 27.2 30.2 22.6 76 3.1 SSE 11 13 6 7 1007.1 1006.8 1.2
16/07:30pm 27.4 31.2 22.7 75 3.2 S 7 11 4 6 1007.0 1006.7 1.2
16/07:00pm 27.6 31.2 23.1 76 3.1 SSW 9 15 5 8 1007.0 1006.7 1.2
16/06:30pm 28.0 31.4 24.1 79 2.7 S 13 15 7 8 1006.9 1006.6 1.2
16/06:00pm 28.0 32.0 25.0 84 2.1 SSW 13 19 7 10 1006.6 1006.3 1.2
16/05:30pm 28.4 32.4 24.4 79 2.8 SW 11 19 6 10 1006.7 1006.4 1.2
16/05:00pm 28.2 30.6 23.6 76 3.2 SSW 17 24 9 13 1006.6 1006.3 1.2
16/04:30pm 27.4 30.8 25.3 88 1.5 W 17 33 9 18 1006.7 1006.4 1.2
16/04:21pm 29.4 30.9 24.4 74 3.5 WSW 24 35 13 19 1006.5 1006.2 0.0
16/04:17pm 29.9 31.6 23.4 68 4.5 W 20 33 11 18 1006.4 1006.1 0.0
16/04:00pm 30.1 31.6 23.1 66 4.8 W 20 26 11 14 1006.3 1006.0 0.0
16/03:30pm 30.8 32.6 23.6 65 5.0 W 20 33 11 18 1006.3 1006.0 0.0
16/03:00pm 30.8 31.9 23.7 66 4.9 WNW 24 32 13 17 1006.4 1006.1 0.0
16/02:30pm 31.0 31.9 23.3 63 5.3 WNW 24 30 13 16 1006.4 1006.1 0.0
16/02:00pm 31.9 32.1 22.7 58 6.3 WNW 26 35 14 19 1006.8 1006.5 0.0
16/01:30pm 32.0 32.0 23.0 59 6.2 WNW 28 33 15 18 1007.3 1007.0 0.0
16/01:00pm 31.7 32.2 22.7 59 6.2 WNW 24 32 13 17 1007.8 1007.5 0.0
16/12:30pm 31.4 32.2 23.1 61 5.7 WNW 24 35 13 19 1008.0 1007.7 0.0
16/12:00pm 31.9 33.2 23.4 60 5.9 WNW 22 28 12 15 1008.6 1008.3 0.0
16/11:30am 31.1 32.6 23.1 62 5.5 WNW 20 26 11 14 1009.0 1008.7 0.0
16/11:00am 30.8 32.9 23.7 66 4.9 W 19 24 10 13 1009.3 1009.0 0.0
16/10:30am 30.3 32.3 24.0 69 4.4 WNW 20 26 11 14 1009.2 1008.9 0.0
16/10:00am 30.5 32.7 24.0 68 4.5 WNW 19 26 10 14 1009.2 1008.9 0.0
16/09:30am 29.9 32.8 24.5 73 3.8 W 17 24 9 13 1009.0 1008.7 0.0
16/09:00am 29.8 32.8 24.7 74 3.6 W 17 22 9 12 1008.8 1008.5 0.0
16/08:30am 29.7 33.4 24.6 74 3.6 W 13 17 7 9 1008.6 1008.3 0.0
16/08:00am 29.1 32.9 24.7 77 3.1 W 13 17 7 9 1008.3 1008.0 0.0
16/07:30am 28.7 32.5 24.7 79 2.8 WNW 13 17 7 9 1008.2 1007.9 0.0
16/07:00am 27.9 32.2 24.3 81 2.5 WNW 9 15 5 8 1007.8 1007.5 0.0
16/06:30am 27.7 31.8 24.5 83 2.2 W 11 15 6 8 1007.4 1007.1 0.0
16/06:00am 27.8 31.7 24.3 81 2.4 W 11 15 6 8 1007.0 1006.7 0.0
16/05:30am 27.6 32.2 24.7 84 2.0 W 9 13 5 7 1006.6 1006.3 0.0
16/05:00am 27.8 32.3 24.6 83 2.2 W 9 11 5 6 1006.4 1006.1 0.0
16/04:30am 27.9 32.6 24.9 84 2.1 W 9 11 5 6 1006.5 1006.2 0.0
16/04:00am 27.9 32.5 24.8 83 2.2 W 9 11 5 6 1006.7 1006.4 0.0
16/03:30am 27.8 31.9 24.6 83 2.2 W 11 13 6 7 1006.6 1006.3 0.0
16/03:00am 27.7 31.9 24.7 84 2.1 W 11 13 6 7 1006.8 1006.5 0.0
16/02:30am 27.7 31.9 24.7 84 2.1 W 11 15 6 8 1006.7 1006.4 0.0
16/02:00am 27.7 31.8 24.5 83 2.2 W 11 15 6 8 1006.7 1006.4 0.0
16/01:30am - - - - - W 9 11 5 6 - 1006.9 -
16/01:00am 27.9 32.2 24.3 81 2.5 W 9 11 5 6 1007.4 1007.1 0.0
16/12:30am 28.2 32.3 23.9 77 3.0 W 9 13 5 7 1007.6 1007.3 0.0
16/12:00am 28.2 32.7 24.0 78 2.9 W 7 9 4 5 1007.9 1007.6 0.0
 
Date/Time
CST
Temp
°C
App
Temp
°C
Dew
Point
°C
Rel
Hum
%
Delta-T
°C
Wind Press
QNH
hPa
Press
MSL
hPa
Rain since
9am
mm
Dir  Spd
km/h
Gust
km/h
Spd
kts
Gust
kts
15/11:30pm 28.3 32.4 24.0 77 3.0 WSW 9 13 5 7 1008.2 1007.9 0.0
15/11:00pm 28.3 32.1 24.1 78 2.9 W 11 15 6 8 1008.5 1008.2 0.0
15/10:30pm 28.6 32.4 24.0 76 3.2 W 11 17 6 9 1008.5 1008.2 0.0
15/10:00pm 28.4 31.9 24.2 78 2.9 W 13 17 7 9 1008.3 1008.0 0.0
15/09:30pm 28.5 32.6 24.6 79 2.7 W 11 15 6 8 1008.0 1007.7 0.0
15/09:00pm 28.8 32.7 24.8 79 2.8 W 13 17 7 9 1007.7 1007.4 0.0
15/08:30pm 28.7 32.8 24.5 78 2.9 WNW 11 17 6 9 1007.5 1007.2 0.0
15/08:00pm 28.9 33.0 24.6 77 3.0 W 11 13 6 7 1007.3 1007.0 0.0
15/07:30pm 29.2 33.1 24.2 74 3.5 WSW 11 17 6 9 1007.4 1007.1 0.0
15/07:00pm 29.4 33.3 24.2 73 3.6 W 11 13 6 7 1007.3 1007.0 0.0
15/06:30pm 29.8 33.5 23.9 70 4.1 W 11 13 6 7 1007.2 1006.9 0.0
15/06:00pm 30.2 33.7 24.2 70 4.2 WNW 13 17 7 9 1006.9 1006.6 0.0
15/05:30pm 30.2 32.8 23.9 69 4.4 WNW 17 20 9 11 1006.6 1006.3 0.0
15/05:00pm 30.6 33.1 23.8 67 4.7 WNW 17 20 9 11 1006.4 1006.1 0.0
15/04:30pm 30.8 32.7 23.7 66 4.9 WNW 20 26 11 14 1006.2 1005.9 0.0
15/04:00pm 31.5 32.9 22.8 60 6.0 WNW 20 28 11 15 1006.5 1006.2 0.0
15/03:30pm 31.3 32.8 23.0 61 5.7 WNW 20 28 11 15 1006.6 1006.3 0.0
15/03:00pm 31.6 33.3 24.0 64 5.3 NW 22 28 12 15 1007.1 1006.8 0.0
15/02:30pm 32.6 34.6 24.0 60 6.0 NW 20 26 11 14 1007.5 1007.2 0.0
15/02:00pm 32.3 34.4 23.8 61 5.9 WNW 19 26 10 14 1008.1 1007.8 0.0
15/01:30pm 32.2 34.2 23.6 60 6.0 NW 19 24 10 13 1008.5 1008.2 0.0
15/01:00pm 32.1 34.2 23.8 61 5.8 WNW 19 26 10 14 1008.8 1008.5 0.0
15/12:30pm 31.8 34.7 23.8 62 5.6 WNW 15 22 8 12 1008.8 1008.5 0.0
15/12:00pm 31.3 34.2 23.8 64 5.2 NW 15 20 8 11 1009.0 1008.7 0.0
15/11:30am 31.3 34.6 23.8 64 5.2 WNW 13 20 7 11 1009.3 1009.0 0.0
15/11:00am 31.1 34.1 23.4 63 5.3 WNW 13 19 7 10 1009.5 1009.2 0.0
15/10:30am 31.2 34.5 22.6 60 5.9 WNW 9 15 5 8 1009.7 1009.4 0.0
15/10:00am 31.1 34.2 22.8 61 5.7 WNW 11 22 6 12 1010.1 1009.9 0.0
15/09:30am 30.1 33.3 23.1 66 4.8 W 11 15 6 8 1010.3 1010.1 0.0
15/09:00am 30.1 34.2 23.3 67 4.7 SW 7 13 4 7 1010.2 1010.0 0.0

Latest Capital City Observations: Canberra | Sydney | Melbourne | Brisbane | Adelaide | Perth | Hobart | Darwin

Other Formats:

Comma delimited format used in spreadsheet applications
http://www.bom.gov.au/fwo/IDD60901/IDD60901.94120.axf

JavaScript Object Notation format (JSON) in row-major order
http://www.bom.gov.au/fwo/IDD60901/IDD60901.94120.json